createdAt,value
2023-04-18T00:01:10.011Z,99.90
2023-04-18T00:03:38.349Z,99.90
2023-04-18T00:06:05.877Z,99.90
2023-04-18T00:08:33.705Z,99.90
2023-04-18T00:11:00.579Z,99.90
2023-04-18T00:13:28.549Z,99.90
2023-04-18T00:15:55.430Z,99.90
2023-04-18T00:18:22.443Z,99.90
2023-04-18T00:20:49.347Z,99.90
2023-04-18T00:23:16.395Z,99.90
2023-04-18T00:25:43.190Z,99.90
2023-04-18T00:28:10.049Z,99.90
2023-04-18T00:30:36.901Z,99.90
2023-04-18T00:33:04.746Z,99.90
2023-04-18T00:35:32.101Z,99.90
2023-04-18T00:37:59.023Z,99.90
2023-04-18T00:40:25.861Z,99.90
2023-04-18T00:42:52.945Z,99.90
2023-04-18T00:45:19.856Z,99.90
2023-04-18T00:47:47.828Z,99.90
2023-04-18T00:50:15.368Z,99.90
2023-04-18T00:52:42.351Z,99.90
2023-04-18T00:55:09.644Z,99.90
2023-04-18T00:57:36.538Z,99.90
2023-04-18T01:00:08.904Z,99.90
2023-04-18T01:02:36.563Z,99.90
2023-04-18T01:05:04.206Z,99.90
2023-04-18T01:07:31.981Z,99.90
2023-04-18T01:09:58.982Z,99.90
2023-04-18T01:12:25.971Z,99.90
2023-04-18T01:14:54.551Z,99.90
2023-04-18T01:17:22.569Z,99.90
2023-04-18T01:19:51.549Z,99.90
2023-04-18T01:22:18.423Z,99.90
2023-04-18T01:24:45.289Z,99.90
2023-04-18T01:27:13.594Z,99.90
2023-04-18T01:29:40.798Z,99.90
2023-04-18T01:32:07.692Z,99.90
2023-04-18T01:34:34.508Z,99.90
2023-04-18T01:37:01.360Z,99.90
2023-04-18T01:39:28.682Z,99.90
2023-04-18T01:41:58.038Z,99.90
2023-04-18T01:44:24.869Z,99.90
2023-04-18T01:46:51.766Z,99.90
2023-04-18T01:49:18.637Z,99.90
2023-04-18T01:51:45.519Z,99.90
2023-04-18T01:54:12.705Z,99.90
2023-04-18T01:56:39.780Z,99.90
2023-04-18T01:59:06.623Z,99.90
2023-04-18T02:01:33.730Z,99.90
2023-04-18T02:04:00.877Z,99.90
2023-04-18T02:06:27.950Z,99.90
2023-04-18T02:08:54.846Z,99.90
2023-04-18T02:11:25.004Z,99.90
2023-04-18T02:13:52.495Z,99.90
2023-04-18T02:16:19.565Z,99.90
2023-04-18T02:18:46.726Z,99.90
2023-04-18T02:21:13.874Z,99.90
2023-04-18T02:23:40.821Z,99.90
2023-04-18T02:26:07.665Z,99.90
2023-04-18T02:28:34.596Z,99.90
2023-04-18T02:31:03.396Z,99.90
2023-04-18T02:33:30.307Z,99.90
2023-04-18T02:35:57.168Z,99.90
2023-04-18T02:38:24.035Z,99.90
2023-04-18T02:40:52.429Z,99.90
2023-04-18T02:43:20.824Z,99.90
2023-04-18T02:45:47.742Z,99.90
2023-04-18T02:48:14.771Z,99.90
2023-04-18T02:50:41.791Z,99.90
2023-04-18T02:53:08.843Z,99.90
2023-04-18T02:55:55.987Z,99.90
2023-04-18T02:58:29.810Z,99.90
2023-04-18T03:01:33.366Z,99.90
2023-04-18T03:04:10.613Z,99.90
2023-04-18T03:06:42.236Z,99.90
2023-04-18T03:09:09.172Z,99.90
2023-04-18T03:11:40.543Z,99.90
2023-04-18T03:14:07.930Z,99.90
2023-04-18T03:16:42.611Z,99.90
2023-04-18T03:19:13.173Z,99.90
2023-04-18T03:21:40.299Z,99.90
2023-04-18T03:24:08.602Z,99.90
2023-04-18T03:26:36.635Z,99.90
2023-04-18T03:29:04.527Z,99.90
2023-04-18T03:31:32.119Z,99.90
2023-04-18T03:33:59.077Z,99.90
2023-04-18T03:36:28.703Z,99.90
2023-04-18T03:38:55.943Z,99.90
2023-04-18T03:41:24.348Z,99.90
2023-04-18T03:43:51.490Z,99.90
2023-04-18T03:46:18.488Z,99.90
2023-04-18T03:48:46.336Z,99.90
2023-04-18T03:51:14.229Z,99.90
2023-04-18T03:53:41.399Z,99.90
2023-04-18T03:56:08.329Z,99.90
2023-04-18T03:58:47.574Z,99.90
2023-04-18T04:01:14.547Z,99.90
2023-04-18T04:03:41.538Z,99.90
2023-04-18T04:06:08.474Z,99.90
2023-04-18T04:08:35.353Z,99.90
2023-04-18T04:11:02.844Z,99.90
2023-04-18T04:13:29.924Z,99.90
2023-04-18T04:15:57.488Z,99.90
2023-04-18T04:18:31.224Z,99.90
2023-04-18T04:21:00.478Z,99.90
2023-04-18T04:23:46.243Z,99.90
2023-04-18T04:26:23.581Z,99.90
2023-04-18T04:29:03.710Z,99.90
2023-04-18T04:31:32.647Z,99.90
2023-04-18T04:33:59.529Z,99.90
2023-04-18T04:36:27.296Z,99.90
2023-04-18T04:38:56.901Z,99.90
2023-04-18T04:41:32.026Z,99.90
2023-04-18T04:43:59.670Z,99.90
2023-04-18T04:46:30.840Z,99.90
2023-04-18T04:49:00.157Z,99.90
2023-04-18T04:51:28.040Z,99.90
2023-04-18T04:53:55.847Z,99.90
2023-04-18T04:56:23.597Z,99.90
2023-04-18T04:58:50.580Z,99.90
2023-04-18T05:01:24.360Z,99.90
2023-04-18T05:03:52.803Z,99.90
2023-04-18T05:06:20.918Z,99.90
2023-04-18T05:08:48.448Z,99.90
2023-04-18T05:11:15.801Z,99.90
2023-04-18T05:13:42.687Z,99.90
2023-04-18T05:16:09.556Z,99.90
2023-04-18T05:18:39.323Z,99.90
2023-04-18T05:21:06.250Z,99.90
2023-04-18T05:23:33.512Z,99.90
2023-04-18T05:26:00.629Z,99.90
2023-04-18T05:28:27.664Z,99.90
2023-04-18T05:31:01.140Z,99.90
2023-04-18T05:33:29.142Z,99.90
2023-04-18T05:35:56.289Z,99.90
2023-04-18T05:38:23.148Z,99.90
2023-04-18T05:40:51.203Z,99.90
2023-04-18T05:43:19.349Z,99.90
2023-04-18T05:45:46.461Z,99.90
2023-04-18T05:48:13.586Z,99.90
2023-04-18T05:50:40.564Z,99.90
2023-04-18T05:53:07.467Z,99.90
2023-04-18T05:55:34.472Z,99.90
2023-04-18T05:58:01.318Z,99.90
2023-04-18T06:00:28.536Z,99.90
2023-04-18T06:02:55.547Z,99.90
2023-04-18T06:05:22.856Z,99.90
2023-04-18T06:07:50.033Z,99.90
2023-04-18T06:10:17.197Z,99.90
2023-04-18T06:12:44.096Z,99.90
2023-04-18T06:15:11.421Z,99.90
2023-04-18T06:17:38.281Z,99.90
2023-04-18T06:20:06.308Z,99.90
2023-04-18T06:22:36.324Z,99.90
2023-04-18T06:25:03.550Z,99.90
2023-04-18T06:27:31.900Z,99.90
2023-04-18T06:29:59.126Z,99.90
2023-04-18T06:32:26.157Z,99.90
2023-04-18T06:34:53.284Z,99.90
2023-04-18T06:37:20.242Z,99.90
2023-04-18T06:39:47.165Z,99.90
2023-04-18T06:42:14.068Z,99.90
2023-04-18T06:44:44.725Z,99.90
2023-04-18T06:47:11.757Z,99.90
2023-04-18T06:49:38.616Z,99.90
2023-04-18T06:52:05.647Z,99.90
2023-04-18T06:54:32.480Z,99.90
2023-04-18T06:56:59.410Z,99.90
2023-04-18T06:59:26.610Z,99.90
2023-04-18T07:01:53.512Z,99.90
2023-04-18T07:04:20.790Z,99.90
2023-04-18T07:06:47.761Z,99.90
2023-04-18T07:09:14.660Z,99.90
2023-04-18T07:11:41.486Z,99.90
2023-04-18T07:14:08.344Z,99.90
2023-04-18T07:16:35.215Z,99.90
2023-04-18T07:19:02.062Z,99.90
2023-04-18T07:21:28.959Z,99.90
2023-04-18T07:23:55.887Z,99.90
2023-04-18T07:26:22.717Z,99.90
2023-04-18T07:28:49.677Z,99.90
2023-04-18T07:31:16.784Z,99.90
2023-04-18T07:33:43.895Z,99.90
2023-04-18T07:36:11.017Z,99.90
2023-04-18T07:38:37.992Z,99.90
2023-04-18T07:41:04.862Z,99.90
2023-04-18T07:43:31.760Z,99.90
2023-04-18T07:45:58.780Z,99.90
2023-04-18T07:48:26.006Z,99.90
2023-04-18T07:50:53.219Z,99.90
2023-04-18T07:53:20.119Z,99.90
2023-04-18T07:55:47.067Z,99.90
2023-04-18T07:58:14.088Z,99.90
2023-04-18T08:00:42.639Z,99.90
2023-04-18T08:03:13.164Z,99.90
2023-04-18T08:05:40.955Z,99.90
2023-04-18T08:08:08.653Z,99.90
2023-04-18T08:10:35.675Z,99.90
2023-04-18T08:13:02.665Z,99.90
2023-04-18T08:15:31.626Z,99.90
2023-04-18T08:17:59.575Z,99.90
2023-04-18T08:20:26.518Z,99.90
2023-04-18T08:23:06.325Z,99.90
2023-04-18T08:25:36.201Z,99.90
2023-04-18T08:28:04.085Z,99.90
2023-04-18T08:30:31.228Z,99.90
2023-04-18T08:32:59.296Z,99.90
2023-04-18T08:35:26.231Z,99.90
2023-04-18T08:37:53.121Z,99.90
2023-04-18T08:40:20.493Z,99.90
2023-04-18T08:42:47.390Z,99.90
2023-04-18T08:45:14.740Z,99.90
2023-04-18T08:47:42.010Z,99.90
2023-04-18T08:50:09.691Z,99.90
2023-04-18T08:52:37.805Z,99.90
2023-04-18T08:55:05.403Z,99.90
2023-04-18T08:57:33.405Z,99.90
2023-04-18T09:00:08.322Z,99.90
2023-04-18T09:02:42.631Z,99.90
2023-04-18T09:05:19.801Z,99.90
2023-04-18T09:07:50.524Z,99.90
2023-04-18T09:10:33.957Z,99.90
2023-04-18T09:13:03.453Z,99.90
2023-04-18T09:15:30.655Z,99.90
2023-04-18T09:17:58.937Z,99.90
2023-04-18T09:20:34.663Z,99.90
2023-04-18T09:23:03.833Z,99.90
2023-04-18T09:25:35.909Z,99.90
2023-04-18T09:28:03.535Z,99.90
2023-04-18T09:30:38.069Z,99.90
2023-04-18T09:33:07.646Z,99.90
2023-04-18T09:35:34.838Z,99.90
2023-04-18T09:38:01.851Z,99.90
2023-04-18T09:40:28.741Z,99.90
2023-04-18T09:42:55.674Z,99.90
2023-04-18T09:45:23.555Z,99.90
2023-04-18T09:47:51.264Z,99.90
2023-04-18T09:50:20.305Z,99.90
2023-04-18T09:52:47.822Z,99.90
2023-04-18T09:55:16.454Z,99.90
2023-04-18T09:57:45.596Z,99.90
2023-04-18T10:00:20.178Z,99.90
2023-04-18T10:03:05.777Z,99.90
2023-04-18T10:05:34.374Z,99.90
2023-04-18T10:08:01.438Z,99.90
2023-04-18T10:10:28.391Z,99.90
2023-04-18T10:12:59.047Z,99.90
2023-04-18T10:15:27.543Z,99.90
2023-04-18T10:18:04.638Z,99.90
2023-04-18T10:20:33.747Z,99.90
2023-04-18T10:23:00.899Z,99.90
2023-04-18T10:25:39.979Z,99.90
2023-04-18T10:28:07.544Z,99.90
2023-04-18T10:30:40.512Z,99.90
2023-04-18T10:33:32.139Z,99.90
2023-04-18T10:36:08.367Z,99.90
2023-04-18T10:38:45.173Z,99.90
2023-04-18T10:41:18.397Z,99.90
2023-04-18T10:44:08.557Z,99.90
2023-04-18T10:46:39.079Z,99.90
2023-04-18T10:49:27.382Z,99.90
2023-04-18T10:51:56.129Z,99.90
2023-04-18T10:54:41.034Z,99.90
2023-04-18T10:57:09.087Z,99.90
2023-04-18T10:59:38.305Z,99.90
2023-04-18T11:02:09.534Z,99.90
2023-04-18T11:04:36.429Z,99.90
2023-04-18T11:07:03.377Z,99.90
2023-04-18T11:09:30.845Z,99.90
2023-04-18T11:12:07.757Z,99.90
2023-04-18T11:14:45.931Z,99.90
2023-04-18T11:17:23.938Z,99.90
2023-04-18T11:19:51.778Z,99.90
2023-04-18T11:22:19.100Z,99.90
2023-04-18T11:24:45.951Z,99.90
2023-04-18T11:27:13.013Z,99.90
2023-04-18T11:29:40.463Z,99.90
2023-04-18T11:32:08.243Z,99.90
2023-04-18T11:34:35.947Z,99.90
2023-04-18T11:37:06.344Z,99.90
2023-04-18T11:39:42.572Z,99.90
2023-04-18T11:42:09.674Z,99.90
2023-04-18T11:44:39.747Z,99.90
2023-04-18T11:47:30.228Z,99.90
2023-04-18T11:50:07.066Z,99.90
2023-04-18T11:52:34.576Z,99.90
2023-04-18T11:55:21.740Z,99.90
2023-04-18T11:57:56.121Z,99.90
2023-04-18T12:00:44.336Z,99.90
2023-04-18T12:03:18.757Z,99.90
2023-04-18T12:05:46.056Z,99.90
2023-04-18T12:08:20.448Z,99.90
2023-04-18T12:10:48.470Z,99.90
2023-04-18T12:13:15.327Z,99.90
2023-04-18T12:15:46.265Z,99.90
2023-04-18T12:18:14.551Z,99.90
2023-04-18T12:20:50.502Z,99.90
2023-04-18T12:23:38.315Z,99.90
2023-04-18T12:26:07.120Z,99.90
2023-04-18T12:28:34.946Z,99.90
2023-04-18T12:31:02.382Z,99.90
2023-04-18T12:33:30.062Z,99.90
2023-04-18T12:35:57.389Z,99.90
2023-04-18T12:38:24.292Z,99.90
2023-04-18T12:40:51.453Z,99.90
2023-04-18T12:43:18.781Z,99.90
2023-04-18T12:45:46.149Z,99.90
2023-04-18T12:48:13.795Z,99.90
2023-04-18T12:50:40.699Z,99.90
2023-04-18T12:53:07.516Z,99.90
2023-04-18T12:55:34.419Z,99.90
2023-04-18T12:58:01.323Z,99.90
2023-04-18T13:00:29.826Z,99.90
2023-04-18T13:02:56.989Z,99.90
2023-04-18T13:05:25.417Z,99.90
2023-04-18T13:07:58.727Z,99.90
2023-04-18T13:10:32.078Z,99.90
2023-04-18T13:12:58.927Z,99.90
2023-04-18T13:15:27.532Z,99.90
2023-04-18T13:17:55.991Z,99.90
2023-04-18T13:20:22.867Z,99.90
2023-04-18T13:22:49.807Z,99.90
2023-04-18T13:25:17.019Z,99.90
2023-04-18T13:27:45.205Z,99.20
2023-04-18T13:30:12.339Z,96.30
2023-04-18T13:32:40.614Z,95.70
2023-04-18T13:35:09.157Z,94.80
2023-04-18T13:37:39.221Z,93.00
2023-04-18T13:40:06.996Z,91.40
2023-04-18T13:42:34.245Z,90.90
2023-04-18T13:45:01.135Z,89.30
2023-04-18T13:47:28.074Z,90.20
2023-04-18T13:49:54.979Z,90.80
2023-04-18T13:52:21.871Z,90.20
2023-04-18T13:54:49.350Z,90.10
2023-04-18T13:57:16.290Z,90.00
2023-04-18T13:59:43.377Z,88.40
2023-04-18T14:02:10.797Z,89.60
2023-04-18T14:04:37.860Z,89.60
2023-04-18T14:07:06.407Z,90.00
2023-04-18T14:09:33.593Z,89.40
2023-04-18T14:12:00.531Z,89.80
2023-04-18T14:14:27.359Z,89.60
2023-04-18T14:16:54.213Z,88.20
2023-04-18T14:19:21.028Z,86.70
2023-04-18T14:21:48.573Z,85.50
2023-04-18T14:24:15.695Z,85.70
2023-04-18T14:26:42.566Z,84.20
2023-04-18T14:29:09.376Z,81.60
2023-04-18T14:31:36.372Z,80.70
2023-04-18T14:34:03.236Z,76.50
2023-04-18T14:36:30.962Z,73.10
2023-04-18T14:38:57.887Z,71.50
2023-04-18T14:41:24.780Z,68.80
2023-04-18T14:43:51.677Z,65.60
2023-04-18T14:46:18.906Z,65.20
2023-04-18T14:48:46.988Z,63.80
2023-04-18T14:51:15.604Z,61.40
2023-04-18T14:53:42.799Z,61.20
2023-04-18T14:56:09.713Z,60.10
2023-04-18T14:58:36.863Z,59.80
2023-04-18T15:01:04.422Z,58.60
2023-04-18T15:03:31.559Z,57.30
2023-04-18T15:05:58.605Z,57.50
2023-04-18T15:08:25.512Z,57.40
2023-04-18T15:10:52.380Z,57.00
2023-04-18T15:13:20.427Z,56.10
2023-04-18T15:15:53.709Z,56.90
2023-04-18T15:18:20.654Z,56.40
2023-04-18T15:20:47.674Z,57.20
2023-04-18T15:23:14.971Z,56.00
2023-04-18T15:25:42.483Z,55.30
2023-04-18T15:28:09.435Z,54.50
2023-04-18T15:30:36.562Z,55.50
2023-04-18T15:33:03.517Z,55.10
2023-04-18T15:35:30.504Z,54.10
2023-04-18T15:37:57.688Z,54.50
2023-04-18T15:40:24.643Z,55.10
2023-04-18T15:42:53.825Z,53.70
2023-04-18T15:45:21.383Z,54.40
2023-04-18T15:47:48.484Z,53.80
2023-04-18T15:50:16.328Z,54.50
2023-04-18T15:52:44.031Z,56.10
2023-04-18T15:55:12.378Z,56.20
2023-04-18T15:57:39.821Z,56.40
2023-04-18T16:00:12.004Z,56.90
2023-04-18T16:02:38.990Z,56.60
2023-04-18T16:05:07.439Z,56.10
2023-04-18T16:07:34.589Z,56.30
2023-04-18T16:10:04.175Z,57.10
2023-04-18T16:12:31.135Z,56.50
2023-04-18T16:14:58.183Z,57.10
2023-04-18T16:17:25.323Z,58.10
2023-04-18T16:19:52.276Z,58.90
2023-04-18T16:22:19.178Z,59.40
2023-04-18T16:24:46.000Z,59.40
2023-04-18T16:27:12.929Z,59.60
2023-04-18T16:29:39.845Z,58.50
2023-04-18T16:32:06.795Z,57.30
2023-04-18T16:34:34.439Z,56.50
2023-04-18T16:37:01.282Z,55.80
2023-04-18T16:39:29.142Z,54.60
2023-04-18T16:41:56.151Z,55.40
2023-04-18T16:44:23.375Z,56.60
2023-04-18T16:46:50.813Z,58.10
2023-04-18T16:49:18.214Z,58.50
2023-04-18T16:51:45.102Z,58.90
2023-04-18T16:54:12.313Z,59.30
2023-04-18T16:56:39.378Z,60.30
2023-04-18T16:59:09.194Z,61.60
2023-04-18T17:01:36.589Z,63.20
2023-04-18T17:04:03.781Z,65.40
2023-04-18T17:06:32.035Z,67.30
2023-04-18T17:08:58.993Z,68.80
2023-04-18T17:11:26.489Z,69.70
2023-04-18T17:13:53.594Z,70.40
2023-04-18T17:16:20.679Z,71.00
2023-04-18T17:18:47.573Z,71.60
2023-04-18T17:21:14.505Z,73.00
2023-04-18T17:23:42.500Z,73.90
2023-04-18T17:26:09.996Z,74.10
2023-04-18T17:28:37.006Z,75.20
2023-04-18T17:31:04.236Z,76.70
2023-04-18T17:33:31.578Z,78.60
2023-04-18T17:35:58.771Z,80.50
2023-04-18T17:38:25.840Z,81.80
2023-04-18T17:41:02.961Z,83.30
2023-04-18T17:43:29.874Z,84.90
2023-04-18T17:46:00.064Z,86.90
2023-04-18T17:48:27.122Z,88.90
2023-04-18T17:50:54.056Z,90.20
2023-04-18T17:53:21.038Z,91.20
2023-04-18T17:55:50.589Z,92.10
2023-04-18T17:58:18.320Z,93.20
2023-04-18T18:00:45.635Z,93.80
2023-04-18T18:03:16.008Z,95.30
2023-04-18T18:05:45.412Z,98.20
2023-04-18T18:08:12.314Z,99.90
2023-04-18T18:10:39.284Z,99.90
2023-04-18T18:13:06.258Z,99.90
2023-04-18T18:15:33.190Z,99.90
2023-04-18T18:18:00.319Z,99.90
2023-04-18T18:20:27.497Z,99.90
2023-04-18T18:22:55.063Z,99.90
2023-04-18T18:25:22.045Z,99.90
2023-04-18T18:27:49.913Z,99.90
2023-04-18T18:30:17.459Z,99.90
2023-04-18T18:32:44.504Z,99.90
2023-04-18T18:35:12.677Z,99.90
2023-04-18T18:37:39.543Z,99.90
2023-04-18T18:40:07.462Z,99.90
2023-04-18T18:42:34.425Z,99.90
2023-04-18T18:45:01.664Z,99.90
2023-04-18T18:47:30.540Z,99.90
2023-04-18T18:49:57.563Z,99.90
2023-04-18T18:52:24.946Z,99.90
2023-04-18T18:54:52.874Z,99.90
2023-04-18T18:57:19.858Z,99.90
2023-04-18T18:59:50.079Z,99.90
2023-04-18T19:02:17.324Z,99.90
2023-04-18T19:04:44.493Z,99.90
2023-04-18T19:07:11.600Z,99.90
2023-04-18T19:09:38.555Z,99.90
2023-04-18T19:12:05.795Z,99.90
2023-04-18T19:14:33.716Z,99.90
2023-04-18T19:17:00.961Z,99.90
2023-04-18T19:19:29.977Z,99.90
2023-04-18T19:21:57.945Z,99.90
2023-04-18T19:24:24.866Z,99.90
2023-04-18T19:26:52.053Z,99.90
2023-04-18T19:29:18.936Z,99.90
2023-04-18T19:31:45.871Z,99.90
2023-04-18T19:34:13.517Z,99.90
2023-04-18T19:36:41.456Z,99.90
2023-04-18T19:39:09.372Z,99.90
2023-04-18T19:41:36.306Z,99.90
2023-04-18T19:44:05.879Z,99.90
2023-04-18T19:46:32.979Z,99.90
2023-04-18T19:48:59.933Z,99.90
2023-04-18T19:51:27.784Z,99.90
2023-04-18T19:53:55.454Z,99.90
2023-04-18T19:56:22.649Z,99.90
2023-04-18T19:58:51.377Z,99.90
2023-04-18T20:01:19.573Z,99.90
2023-04-18T20:03:47.214Z,99.90
2023-04-18T20:06:15.711Z,99.90
2023-04-18T20:08:43.262Z,99.90
2023-04-18T20:11:12.137Z,99.90
2023-04-18T20:13:41.899Z,99.90
2023-04-18T20:16:09.343Z,99.90
2023-04-18T20:18:41.811Z,99.90
2023-04-18T20:21:09.360Z,99.90
2023-04-18T20:23:42.963Z,99.90
2023-04-18T20:26:12.874Z,99.90
2023-04-18T20:28:40.168Z,99.90
2023-04-18T20:31:07.294Z,99.90
2023-04-18T20:33:34.473Z,99.90
2023-04-18T20:36:01.343Z,99.90
2023-04-18T20:38:29.722Z,99.90
2023-04-18T20:40:58.808Z,99.90
2023-04-18T20:43:25.996Z,99.90
2023-04-18T20:45:53.963Z,99.90
2023-04-18T20:48:21.244Z,99.90
2023-04-18T20:50:51.559Z,99.90
2023-04-18T20:53:20.778Z,99.90
2023-04-18T20:55:48.627Z,99.90
2023-04-18T20:58:15.799Z,99.90
2023-04-18T21:00:43.776Z,99.90
2023-04-18T21:03:13.202Z,99.90
2023-04-18T21:05:40.291Z,99.90
2023-04-18T21:08:07.135Z,99.90
2023-04-18T21:10:34.202Z,99.90
2023-04-18T21:13:01.063Z,99.90
2023-04-18T21:15:27.889Z,99.90
2023-04-18T21:17:55.738Z,99.90
2023-04-18T21:20:22.714Z,99.90
2023-04-18T21:22:49.599Z,99.90
2023-04-18T21:25:16.954Z,99.90
2023-04-18T21:27:43.880Z,99.90
2023-04-18T21:30:11.183Z,99.90
2023-04-18T21:32:38.107Z,99.90
2023-04-18T21:35:05.316Z,99.90
2023-04-18T21:37:32.302Z,99.90
2023-04-18T21:39:59.851Z,99.90
2023-04-18T21:42:26.917Z,99.90
2023-04-18T21:44:54.883Z,99.90
2023-04-18T21:47:22.100Z,99.90
2023-04-18T21:49:49.515Z,99.90
2023-04-18T21:52:16.371Z,99.90
2023-04-18T21:54:43.165Z,99.90
2023-04-18T21:57:09.996Z,99.90
2023-04-18T21:59:36.839Z,99.90
2023-04-18T22:02:04.913Z,99.90
2023-04-18T22:04:32.241Z,99.90
2023-04-18T22:06:59.275Z,99.90
2023-04-18T22:09:26.140Z,99.90
2023-04-18T22:11:56.847Z,99.90
2023-04-18T22:14:24.772Z,99.90
2023-04-18T22:16:51.900Z,99.90
2023-04-18T22:19:19.418Z,99.90
2023-04-18T22:21:46.480Z,99.90
2023-04-18T22:24:13.476Z,99.90
2023-04-18T22:26:40.931Z,99.90
2023-04-18T22:29:07.812Z,99.90
2023-04-18T22:31:34.644Z,99.90
2023-04-18T22:34:01.557Z,99.90
2023-04-18T22:36:28.397Z,99.90
2023-04-18T22:38:55.292Z,99.90
2023-04-18T22:41:22.276Z,99.90
2023-04-18T22:43:49.101Z,99.90
2023-04-18T22:46:16.025Z,99.90
2023-04-18T22:48:44.860Z,99.90
2023-04-18T22:51:11.768Z,99.90
2023-04-18T22:53:38.586Z,99.90
2023-04-18T22:56:05.938Z,99.90
2023-04-18T22:58:32.862Z,99.90
2023-04-18T23:00:59.817Z,99.90
2023-04-18T23:03:26.780Z,99.90
2023-04-18T23:05:53.932Z,99.90
2023-04-18T23:08:22.515Z,99.90
2023-04-18T23:10:49.466Z,99.90
2023-04-18T23:13:16.266Z,99.90
2023-04-18T23:15:43.223Z,99.90
2023-04-18T23:18:10.131Z,99.90
2023-04-18T23:20:37.891Z,99.90
2023-04-18T23:23:04.751Z,99.90
2023-04-18T23:25:34.773Z,99.90
2023-04-18T23:28:01.633Z,99.90
2023-04-18T23:30:28.462Z,99.90
2023-04-18T23:32:55.309Z,99.90
2023-04-18T23:35:22.219Z,99.90
2023-04-18T23:37:50.268Z,99.90
2023-04-18T23:40:17.212Z,99.90
2023-04-18T23:42:44.153Z,99.90
2023-04-18T23:45:11.472Z,99.90
2023-04-18T23:47:38.356Z,99.90
2023-04-18T23:50:05.745Z,99.90
2023-04-18T23:52:32.762Z,99.90
2023-04-18T23:55:00.788Z,99.90
2023-04-18T23:57:27.904Z,99.90
2023-04-18T23:59:54.886Z,99.90
